createdAt,value
2024-03-03T00:01:07.990Z,9.83
2024-03-03T00:03:36.910Z,9.83
2024-03-03T00:06:07.563Z,9.82
2024-03-03T00:08:35.047Z,9.75
2024-03-03T00:11:02.161Z,9.74
2024-03-03T00:13:30.708Z,9.68
2024-03-03T00:15:57.957Z,9.67
2024-03-03T00:18:25.038Z,9.66
2024-03-03T00:20:51.999Z,9.63
2024-03-03T00:23:19.090Z,9.62
2024-03-03T00:25:46.255Z,9.62
2024-03-03T00:28:13.307Z,9.59
2024-03-03T00:30:40.473Z,9.59
2024-03-03T00:33:07.945Z,9.55
2024-03-03T00:35:35.039Z,9.56
2024-03-03T00:38:02.022Z,9.52
2024-03-03T00:40:29.124Z,9.52
2024-03-03T00:42:56.174Z,9.48
2024-03-03T00:45:23.119Z,9.48
2024-03-03T00:47:50.177Z,9.47
2024-03-03T00:50:17.200Z,9.45
2024-03-03T00:52:44.189Z,9.48
2024-03-03T00:55:11.323Z,9.43
2024-03-03T00:57:38.434Z,9.27
2024-03-03T01:00:06.691Z,9.44
2024-03-03T01:02:33.788Z,9.39
2024-03-03T01:05:00.726Z,9.33
2024-03-03T01:07:27.786Z,9.36
2024-03-03T01:09:54.914Z,9.35
2024-03-03T01:12:21.904Z,9.31
2024-03-03T01:14:48.984Z,9.27
2024-03-03T01:17:16.033Z,9.27
2024-03-03T01:19:43.503Z,9.23
2024-03-03T01:22:10.881Z,9.22
2024-03-03T01:24:38.868Z,9.22
2024-03-03T01:27:06.002Z,9.17
2024-03-03T01:29:32.944Z,9.15
2024-03-03T01:32:00.038Z,9.18
2024-03-03T01:34:27.159Z,9.15
2024-03-03T01:36:54.358Z,9.14
2024-03-03T01:39:21.595Z,9.16
2024-03-03T01:41:49.045Z,9.14
2024-03-03T01:44:16.095Z,9.08
2024-03-03T01:46:43.668Z,9.02
2024-03-03T01:49:14.195Z,9.08
2024-03-03T01:51:42.104Z,9.04
2024-03-03T01:54:10.425Z,9.10
2024-03-03T01:56:39.899Z,9.07
2024-03-03T01:59:09.799Z,9.10
2024-03-03T02:01:38.454Z,8.98
2024-03-03T02:04:08.786Z,9.04
2024-03-03T02:06:36.302Z,9.02
2024-03-03T02:09:04.077Z,9.02
2024-03-03T02:11:31.070Z,8.95
2024-03-03T02:13:58.905Z,8.98
2024-03-03T02:16:26.200Z,8.94
2024-03-03T02:18:53.431Z,8.95
2024-03-03T02:21:25.149Z,8.97
2024-03-03T02:23:52.789Z,8.91
2024-03-03T02:26:23.469Z,8.94
2024-03-03T02:28:52.461Z,8.90
2024-03-03T02:31:20.147Z,8.92
2024-03-03T02:33:47.521Z,8.85
2024-03-03T02:36:14.672Z,8.84
2024-03-03T02:38:49.534Z,8.85
2024-03-03T02:41:16.509Z,8.80
2024-03-03T02:43:43.466Z,8.77
2024-03-03T02:46:10.616Z,8.77
2024-03-03T02:48:37.651Z,8.75
2024-03-03T02:51:04.690Z,8.73
2024-03-03T02:53:31.812Z,8.71
2024-03-03T02:55:58.727Z,8.69
2024-03-03T02:58:25.787Z,8.66
2024-03-03T03:00:52.882Z,8.68
2024-03-03T03:03:20.135Z,8.64
2024-03-03T03:05:47.461Z,8.64
2024-03-03T03:08:14.443Z,8.62
2024-03-03T03:10:41.534Z,8.61
2024-03-03T03:13:09.214Z,8.44
2024-03-03T03:15:37.376Z,8.54
2024-03-03T03:18:05.066Z,8.54
2024-03-03T03:20:32.710Z,8.53
2024-03-03T03:22:59.651Z,8.51
2024-03-03T03:25:26.735Z,8.50
2024-03-03T03:27:53.694Z,8.46
2024-03-03T03:30:20.999Z,8.46
2024-03-03T03:32:48.008Z,8.43
2024-03-03T03:35:15.010Z,8.43
2024-03-03T03:37:41.977Z,8.41
2024-03-03T03:40:12.591Z,8.40
2024-03-03T03:42:39.597Z,8.38
2024-03-03T03:45:07.155Z,8.38
2024-03-03T03:47:34.507Z,8.34
2024-03-03T03:50:01.693Z,8.32
2024-03-03T03:52:29.490Z,8.33
2024-03-03T03:54:56.532Z,8.29
2024-03-03T03:57:23.553Z,8.30
2024-03-03T03:59:50.556Z,8.27
2024-03-03T04:02:17.741Z,8.24
2024-03-03T04:04:44.671Z,8.23
2024-03-03T04:07:11.895Z,8.22
2024-03-03T04:09:39.093Z,8.20
2024-03-03T04:12:06.768Z,8.18
2024-03-03T04:14:34.850Z,8.18
2024-03-03T04:17:02.232Z,8.14
2024-03-03T04:19:29.216Z,8.13
2024-03-03T04:21:56.215Z,8.09
2024-03-03T04:24:23.195Z,8.10
2024-03-03T04:26:50.184Z,8.09
2024-03-03T04:29:17.516Z,8.06
2024-03-03T04:31:46.015Z,8.09
2024-03-03T04:34:13.255Z,8.05
2024-03-03T04:36:45.871Z,8.05
2024-03-03T04:39:13.835Z,8.03
2024-03-03T04:41:40.794Z,7.98
2024-03-03T04:44:07.865Z,8.00
2024-03-03T04:46:34.937Z,7.96
2024-03-03T04:49:02.009Z,7.94
2024-03-03T04:51:29.047Z,7.93
2024-03-03T04:53:56.738Z,7.94
2024-03-03T04:56:28.476Z,7.95
2024-03-03T04:58:55.594Z,7.89
2024-03-03T05:01:23.478Z,7.88
2024-03-03T05:03:51.321Z,7.88
2024-03-03T05:06:19.429Z,7.88
2024-03-03T05:08:46.527Z,7.87
2024-03-03T05:11:13.915Z,7.83
2024-03-03T05:13:40.872Z,7.79
2024-03-03T05:16:10.847Z,7.83
2024-03-03T05:18:37.770Z,7.76
2024-03-03T05:21:05.189Z,7.78
2024-03-03T05:23:33.408Z,7.79
2024-03-03T05:26:00.326Z,7.74
2024-03-03T05:28:28.535Z,7.77
2024-03-03T05:30:55.569Z,7.72
2024-03-03T05:33:22.721Z,7.73
2024-03-03T05:35:49.658Z,7.72
2024-03-03T05:38:16.675Z,7.72
2024-03-03T05:40:43.628Z,7.70
2024-03-03T05:43:10.642Z,7.69
2024-03-03T05:45:38.637Z,7.66
2024-03-03T05:48:06.239Z,7.64
2024-03-03T05:50:33.209Z,7.63
2024-03-03T05:53:00.231Z,7.62
2024-03-03T05:55:27.219Z,7.61
2024-03-03T05:57:54.937Z,7.60
2024-03-03T06:00:21.945Z,7.59
2024-03-03T06:02:48.897Z,7.57
2024-03-03T06:05:16.079Z,7.56
2024-03-03T06:07:43.154Z,7.55
2024-03-03T06:10:10.454Z,7.56
2024-03-03T06:12:37.473Z,7.50
2024-03-03T06:15:04.821Z,7.53
2024-03-03T06:17:31.773Z,7.46
2024-03-03T06:19:58.754Z,7.16
2024-03-03T06:22:25.682Z,7.38
2024-03-03T06:24:52.691Z,7.41
2024-03-03T06:27:19.589Z,7.42
2024-03-03T06:29:46.615Z,7.42
2024-03-03T06:32:13.974Z,7.41
2024-03-03T06:34:40.902Z,7.42
2024-03-03T06:37:07.891Z,7.44
2024-03-03T06:39:34.893Z,7.43
2024-03-03T06:42:01.896Z,7.43
2024-03-03T06:44:30.957Z,7.46
2024-03-03T06:46:59.359Z,7.47
2024-03-03T06:49:26.683Z,7.47
2024-03-03T06:51:53.692Z,7.47
2024-03-03T06:54:20.718Z,7.45
2024-03-03T06:56:47.661Z,7.43
2024-03-03T06:59:15.060Z,7.45
2024-03-03T07:01:42.099Z,7.43
2024-03-03T07:04:18.316Z,7.43
2024-03-03T07:06:45.471Z,7.46
2024-03-03T07:09:12.458Z,7.47
2024-03-03T07:11:39.481Z,7.47
2024-03-03T07:14:06.801Z,7.51
2024-03-03T07:16:33.989Z,7.50
2024-03-03T07:19:01.150Z,7.55
2024-03-03T07:21:30.514Z,7.58
2024-03-03T07:23:57.560Z,7.57
2024-03-03T07:26:24.702Z,7.60
2024-03-03T07:28:52.621Z,7.64
2024-03-03T07:31:20.057Z,7.64
2024-03-03T07:33:47.144Z,7.65
2024-03-03T07:36:14.137Z,7.66
2024-03-03T07:38:41.392Z,7.69
2024-03-03T07:41:08.381Z,7.70
2024-03-03T07:43:36.015Z,7.73
2024-03-03T07:46:03.028Z,7.74
2024-03-03T07:48:30.031Z,7.74
2024-03-03T07:50:56.995Z,7.79
2024-03-03T07:53:24.289Z,7.80
2024-03-03T07:55:51.304Z,7.82
2024-03-03T07:58:18.458Z,7.86
2024-03-03T08:00:45.805Z,7.87
2024-03-03T08:03:13.777Z,7.80
2024-03-03T08:05:40.813Z,7.80
2024-03-03T08:08:07.900Z,7.79
2024-03-03T08:10:34.992Z,7.80
2024-03-03T08:13:02.249Z,7.85
2024-03-03T08:15:34.540Z,7.94
2024-03-03T08:18:02.612Z,7.98
2024-03-03T08:20:29.940Z,8.02
2024-03-03T08:22:57.159Z,8.00
2024-03-03T08:25:25.792Z,8.11
2024-03-03T08:27:53.742Z,8.27
2024-03-03T08:30:21.167Z,8.41
2024-03-03T08:32:48.290Z,8.49
2024-03-03T08:35:15.742Z,8.33
2024-03-03T08:37:45.796Z,8.27
2024-03-03T08:40:13.193Z,8.27
2024-03-03T08:42:40.251Z,8.29
2024-03-03T08:45:08.435Z,8.26
2024-03-03T08:47:36.126Z,8.39
2024-03-03T08:50:05.392Z,8.60
2024-03-03T08:52:32.492Z,9.13
2024-03-03T08:54:59.538Z,9.47
2024-03-03T08:57:26.759Z,9.56
2024-03-03T08:59:53.853Z,9.62
2024-03-03T09:02:20.801Z,9.36
2024-03-03T09:04:48.294Z,9.45
2024-03-03T09:07:15.469Z,9.20
2024-03-03T09:09:44.340Z,9.22
2024-03-03T09:12:12.834Z,9.21
2024-03-03T09:14:39.982Z,8.95
2024-03-03T09:17:06.985Z,9.31
2024-03-03T09:19:34.035Z,9.20
2024-03-03T09:22:01.247Z,10.00
2024-03-03T09:24:28.300Z,10.42
2024-03-03T09:26:55.252Z,10.65
2024-03-03T09:29:25.109Z,10.70
2024-03-03T09:31:55.784Z,10.68
2024-03-03T09:34:23.380Z,10.26
2024-03-03T09:36:50.727Z,10.69
2024-03-03T09:39:18.271Z,11.47
2024-03-03T09:41:45.256Z,11.51
2024-03-03T09:44:18.405Z,11.87
2024-03-03T09:46:47.976Z,11.88
2024-03-03T09:49:20.227Z,12.05
2024-03-03T09:51:49.498Z,12.52
2024-03-03T09:54:20.057Z,12.60
2024-03-03T09:56:49.493Z,12.60
2024-03-03T09:59:17.089Z,12.10
2024-03-03T10:01:56.860Z,12.82
2024-03-03T10:04:24.612Z,13.14
2024-03-03T10:06:53.711Z,13.43
2024-03-03T10:09:20.839Z,12.78
2024-03-03T10:11:49.170Z,13.40
2024-03-03T10:14:18.748Z,13.34
2024-03-03T10:16:45.705Z,13.16
2024-03-03T10:19:12.725Z,13.16
2024-03-03T10:21:40.582Z,13.30
2024-03-03T10:24:27.126Z,13.44
2024-03-03T10:26:55.931Z,13.04
2024-03-03T10:29:28.313Z,13.54
2024-03-03T10:31:56.393Z,14.00
2024-03-03T10:34:24.374Z,14.37
2024-03-03T10:37:03.913Z,14.81
2024-03-03T10:39:38.398Z,13.80
2024-03-03T10:42:10.366Z,13.70
2024-03-03T10:44:37.781Z,13.60
2024-03-03T10:47:12.178Z,13.18
2024-03-03T10:49:42.707Z,13.53
2024-03-03T10:52:11.679Z,13.41
2024-03-03T10:54:40.375Z,13.67
2024-03-03T10:57:11.001Z,13.96
2024-03-03T10:59:42.596Z,13.53
2024-03-03T11:02:15.469Z,12.82
2024-03-03T11:04:43.945Z,13.48
2024-03-03T11:07:12.465Z,14.27
2024-03-03T11:09:40.036Z,14.74
2024-03-03T11:12:08.351Z,14.78
2024-03-03T11:14:49.161Z,14.97
2024-03-03T11:17:20.927Z,14.48
2024-03-03T11:19:50.631Z,14.73
2024-03-03T11:22:26.156Z,14.76
2024-03-03T11:25:04.042Z,15.28
2024-03-03T11:27:31.412Z,15.39
2024-03-03T11:29:59.156Z,15.59
2024-03-03T11:32:31.526Z,15.60
2024-03-03T11:34:59.724Z,15.69
2024-03-03T11:37:29.050Z,15.62
2024-03-03T11:39:58.091Z,15.73
2024-03-03T11:42:34.314Z,15.63
2024-03-03T11:45:03.089Z,15.88
2024-03-03T11:47:46.988Z,16.15
2024-03-03T11:50:22.841Z,17.48
2024-03-03T11:52:51.167Z,19.01
2024-03-03T11:55:27.540Z,19.58
2024-03-03T11:58:00.599Z,18.72
2024-03-03T12:00:29.681Z,17.91
2024-03-03T12:02:59.510Z,18.00
2024-03-03T12:05:27.680Z,18.56
2024-03-03T12:07:56.623Z,20.80
2024-03-03T12:10:33.966Z,20.75
2024-03-03T12:13:03.030Z,19.92
2024-03-03T12:15:31.103Z,19.52
2024-03-03T12:18:00.318Z,18.82
2024-03-03T12:20:30.067Z,18.57
2024-03-03T12:22:57.994Z,19.94
2024-03-03T12:25:26.608Z,21.00
2024-03-03T12:27:57.297Z,20.83
2024-03-03T12:30:33.744Z,22.11
2024-03-03T12:33:02.740Z,22.07
2024-03-03T12:35:29.826Z,20.75
2024-03-03T12:37:56.824Z,20.77
2024-03-03T12:40:31.015Z,23.97
2024-03-03T12:42:58.977Z,26.07
2024-03-03T12:45:26.120Z,26.10
2024-03-03T12:47:53.291Z,25.96
2024-03-03T12:50:21.107Z,23.56
2024-03-03T12:52:49.329Z,23.96
2024-03-03T12:55:16.957Z,23.11
2024-03-03T12:57:45.369Z,24.16
2024-03-03T13:00:16.950Z,25.68
2024-03-03T13:02:45.537Z,26.07
2024-03-03T13:05:15.524Z,24.94
2024-03-03T13:07:52.867Z,25.78
2024-03-03T13:10:25.324Z,24.89
2024-03-03T13:12:57.121Z,26.37
2024-03-03T13:15:29.027Z,26.74
2024-03-03T13:18:14.614Z,26.14
2024-03-03T13:20:42.636Z,25.70
2024-03-03T13:23:20.552Z,25.33
2024-03-03T13:25:47.963Z,22.23
2024-03-03T13:28:17.060Z,20.66
2024-03-03T13:30:58.248Z,19.83
2024-03-03T13:33:32.642Z,19.69
2024-03-03T13:36:01.910Z,20.86
2024-03-03T13:38:29.243Z,24.08
2024-03-03T13:40:56.247Z,26.09
2024-03-03T13:43:23.570Z,27.08
2024-03-03T13:45:51.079Z,25.50
2024-03-03T13:48:18.148Z,24.73
2024-03-03T13:50:45.201Z,25.67
2024-03-03T13:53:12.718Z,25.64
2024-03-03T13:55:39.818Z,26.16
2024-03-03T13:58:08.057Z,23.30
2024-03-03T14:00:37.065Z,21.54
2024-03-03T14:03:29.686Z,20.63
2024-03-03T14:05:56.811Z,19.61
2024-03-03T14:08:23.716Z,19.94
2024-03-03T14:10:50.805Z,19.53
2024-03-03T14:13:17.820Z,19.46
2024-03-03T14:15:44.926Z,20.03
2024-03-03T14:18:12.209Z,20.78
2024-03-03T14:20:39.565Z,20.96
2024-03-03T14:23:06.789Z,20.47
2024-03-03T14:25:33.857Z,19.77
2024-03-03T14:28:09.020Z,18.91
2024-03-03T14:30:41.317Z,18.11
2024-03-03T14:33:08.364Z,18.05
2024-03-03T14:35:35.261Z,18.35
2024-03-03T14:38:02.500Z,18.37
2024-03-03T14:40:48.243Z,18.06
2024-03-03T14:43:15.370Z,17.97
2024-03-03T14:45:42.709Z,17.97
2024-03-03T14:48:09.791Z,18.13
2024-03-03T14:50:36.824Z,17.94
2024-03-03T14:53:07.470Z,18.13
2024-03-03T14:55:34.933Z,18.19
2024-03-03T14:58:05.132Z,18.40
2024-03-03T15:00:33.282Z,18.53
2024-03-03T15:03:00.326Z,18.65
2024-03-03T15:05:27.226Z,18.79
2024-03-03T15:07:54.271Z,18.65
2024-03-03T15:10:21.527Z,18.77
2024-03-03T15:12:48.607Z,18.70
2024-03-03T15:15:15.607Z,18.44
2024-03-03T15:17:42.595Z,18.50
2024-03-03T15:20:15.966Z,18.57
2024-03-03T15:22:43.080Z,18.53
2024-03-03T15:25:10.231Z,18.46
2024-03-03T15:27:38.116Z,18.56
2024-03-03T15:30:06.650Z,18.80
2024-03-03T15:32:33.594Z,18.78
2024-03-03T15:35:01.041Z,18.71
2024-03-03T15:37:28.211Z,18.64
2024-03-03T15:39:55.334Z,18.75
2024-03-03T15:42:22.447Z,18.52
2024-03-03T15:44:49.510Z,18.29
2024-03-03T15:47:16.714Z,18.11
2024-03-03T15:49:43.613Z,18.06
2024-03-03T15:52:11.236Z,17.94
2024-03-03T15:54:38.226Z,17.95
2024-03-03T15:57:06.765Z,17.97
2024-03-03T15:59:33.745Z,17.76
2024-03-03T16:02:02.918Z,17.74
2024-03-03T16:04:30.443Z,17.75
2024-03-03T16:06:58.769Z,17.56
2024-03-03T16:09:26.530Z,17.50
2024-03-03T16:11:54.322Z,17.50
2024-03-03T16:14:21.385Z,17.35
2024-03-03T16:16:48.474Z,17.28
2024-03-03T16:19:15.513Z,17.14
2024-03-03T16:21:43.868Z,16.97
2024-03-03T16:24:10.904Z,16.94
2024-03-03T16:26:39.326Z,17.05
2024-03-03T16:29:06.378Z,16.92
2024-03-03T16:31:34.282Z,16.73
2024-03-03T16:34:01.374Z,16.76
2024-03-03T16:36:28.487Z,16.67
2024-03-03T16:38:55.445Z,16.65
2024-03-03T16:41:22.518Z,16.53
2024-03-03T16:43:49.520Z,16.58
2024-03-03T16:46:16.737Z,16.40
2024-03-03T16:48:43.996Z,16.21
2024-03-03T16:51:11.058Z,16.14
2024-03-03T16:53:38.065Z,15.89
2024-03-03T16:56:06.588Z,15.93
2024-03-03T16:58:33.926Z,15.80
2024-03-03T17:01:03.130Z,15.73
2024-03-03T17:03:32.240Z,15.51
2024-03-03T17:05:59.456Z,15.35
2024-03-03T17:08:26.603Z,15.14
2024-03-03T17:10:53.727Z,15.26
2024-03-03T17:13:20.838Z,15.37
2024-03-03T17:15:47.999Z,15.17
2024-03-03T17:18:15.199Z,15.27
2024-03-03T17:20:42.457Z,15.16
2024-03-03T17:23:11.298Z,15.18
2024-03-03T17:25:38.361Z,15.21
2024-03-03T17:28:05.886Z,14.97
2024-03-03T17:30:32.896Z,14.99
2024-03-03T17:32:59.872Z,14.90
2024-03-03T17:35:26.956Z,14.77
2024-03-03T17:37:53.949Z,14.76
2024-03-03T17:40:21.108Z,14.74
2024-03-03T17:42:48.172Z,14.75
2024-03-03T17:45:15.489Z,14.81
2024-03-03T17:47:42.607Z,14.58
2024-03-03T17:50:09.959Z,14.48
2024-03-03T17:52:37.314Z,14.42
2024-03-03T17:55:05.289Z,14.64
2024-03-03T17:57:33.467Z,14.64
2024-03-03T18:00:01.999Z,14.56
2024-03-03T18:02:29.415Z,14.55
2024-03-03T18:04:56.396Z,14.23
2024-03-03T18:07:24.248Z,14.38
2024-03-03T18:09:51.350Z,14.22
2024-03-03T18:12:18.498Z,14.24
2024-03-03T18:14:45.592Z,14.23
2024-03-03T18:17:12.547Z,14.26
2024-03-03T18:19:40.016Z,14.18
2024-03-03T18:22:07.130Z,13.70
2024-03-03T18:24:34.643Z,13.58
2024-03-03T18:27:01.746Z,13.76
2024-03-03T18:29:31.750Z,13.80
2024-03-03T18:31:59.398Z,13.75
2024-03-03T18:34:26.487Z,13.82
2024-03-03T18:36:54.885Z,13.73
2024-03-03T18:39:24.821Z,13.57
2024-03-03T18:41:52.260Z,13.41
2024-03-03T18:44:20.062Z,13.06
2024-03-03T18:46:47.192Z,13.34
2024-03-03T18:49:14.481Z,13.36
2024-03-03T18:51:43.337Z,13.38
2024-03-03T18:54:10.432Z,13.38
2024-03-03T18:56:37.490Z,13.43
2024-03-03T18:59:04.498Z,13.41
2024-03-03T19:01:33.835Z,13.32
2024-03-03T19:04:01.692Z,13.30
2024-03-03T19:06:29.196Z,13.29
2024-03-03T19:08:57.004Z,13.20
2024-03-03T19:11:24.044Z,13.11
2024-03-03T19:13:53.469Z,13.07
2024-03-03T19:16:20.460Z,13.04
2024-03-03T19:18:47.830Z,13.09
2024-03-03T19:21:16.104Z,12.98
2024-03-03T19:23:43.166Z,13.06
2024-03-03T19:26:10.504Z,13.03
2024-03-03T19:28:38.700Z,13.05
2024-03-03T19:31:05.970Z,13.02
2024-03-03T19:33:33.292Z,-141.13
2024-03-03T19:36:01.357Z,-141.13
2024-03-03T19:38:29.835Z,-141.13
2024-03-03T19:40:57.774Z,-141.13
2024-03-03T19:43:25.643Z,-141.13
2024-03-03T19:45:53.049Z,-141.13
2024-03-03T19:48:20.745Z,-141.13
2024-03-03T19:50:47.909Z,-141.13
2024-03-03T19:53:15.218Z,-141.13
2024-03-03T19:55:43.968Z,-141.13
2024-03-03T19:58:10.996Z,-141.13
2024-03-03T20:02:57.520Z,12.49
2024-03-03T20:05:24.658Z,12.44
2024-03-03T20:07:51.732Z,12.38
2024-03-03T20:10:20.389Z,12.39
2024-03-03T20:12:47.404Z,12.37
2024-03-03T20:15:14.462Z,12.32
2024-03-03T20:17:41.496Z,12.30
2024-03-03T20:20:10.783Z,12.29
2024-03-03T20:22:38.535Z,12.26
2024-03-03T20:25:06.408Z,12.25
2024-03-03T20:27:34.102Z,12.19
2024-03-03T20:30:01.427Z,12.13
2024-03-03T20:32:28.612Z,12.17
2024-03-03T20:34:57.962Z,12.05
2024-03-03T20:37:25.442Z,12.04
2024-03-03T20:39:53.875Z,11.65
2024-03-03T20:42:21.128Z,11.90
2024-03-03T20:44:48.358Z,11.94
2024-03-03T20:47:15.356Z,11.92
2024-03-03T20:49:42.361Z,11.92
2024-03-03T20:52:09.395Z,11.90
2024-03-03T20:54:36.481Z,11.90
2024-03-03T20:57:09.609Z,11.95
2024-03-03T20:59:36.884Z,11.93
2024-03-03T21:02:05.502Z,11.89
2024-03-03T21:04:33.788Z,11.86
2024-03-03T21:07:01.535Z,11.85
2024-03-03T21:09:32.823Z,11.83
2024-03-03T21:11:59.773Z,11.76
2024-03-03T21:14:27.885Z,11.73
2024-03-03T21:16:54.863Z,11.72
2024-03-03T21:19:21.901Z,11.36
2024-03-03T21:21:49.352Z,11.55
2024-03-03T21:24:16.630Z,11.56
2024-03-03T21:26:47.089Z,11.59
2024-03-03T21:29:14.168Z,11.56
2024-03-03T21:31:41.323Z,11.54
2024-03-03T21:34:08.398Z,11.54
2024-03-03T21:36:35.895Z,11.53
2024-03-03T21:39:02.922Z,11.49
2024-03-03T21:41:29.872Z,11.49
2024-03-03T21:43:56.851Z,11.48
2024-03-03T21:46:25.712Z,11.45
2024-03-03T21:48:53.093Z,11.43
2024-03-03T21:51:20.161Z,11.42
2024-03-03T21:53:50.856Z,11.39
2024-03-03T21:56:18.372Z,11.40
2024-03-03T21:58:46.289Z,11.37
2024-03-03T22:01:13.990Z,11.33
2024-03-03T22:03:41.052Z,11.29
2024-03-03T22:06:08.079Z,11.26
2024-03-03T22:08:35.073Z,11.27
2024-03-03T22:11:02.089Z,11.24
2024-03-03T22:13:29.182Z,11.24
2024-03-03T22:15:56.173Z,11.20
2024-03-03T22:18:23.538Z,11.20
2024-03-03T22:20:50.463Z,11.16
2024-03-03T22:23:17.419Z,11.16
2024-03-03T22:25:44.547Z,11.15
2024-03-03T22:28:11.610Z,11.10
2024-03-03T22:30:39.984Z,10.99
2024-03-03T22:33:06.966Z,11.02
2024-03-03T22:35:33.911Z,11.03
2024-03-03T22:38:01.041Z,11.01
2024-03-03T22:40:30.633Z,10.98
2024-03-03T22:42:58.405Z,10.93
2024-03-03T22:45:28.505Z,10.92
2024-03-03T22:47:55.529Z,10.86
2024-03-03T22:50:23.278Z,10.86
2024-03-03T22:52:50.236Z,10.83
2024-03-03T22:55:17.218Z,10.83
2024-03-03T22:57:44.286Z,10.80
2024-03-03T23:00:14.683Z,10.79
2024-03-03T23:02:41.923Z,10.76
2024-03-03T23:05:09.261Z,10.75
2024-03-03T23:07:36.383Z,10.73
2024-03-03T23:10:03.892Z,10.70
2024-03-03T23:12:31.021Z,10.69
2024-03-03T23:14:57.946Z,10.67
2024-03-03T23:17:24.998Z,10.65
2024-03-03T23:19:51.985Z,10.57
2024-03-03T23:22:19.589Z,10.60
2024-03-03T23:24:46.885Z,10.59
2024-03-03T23:27:13.874Z,10.58
2024-03-03T23:29:40.815Z,10.56
2024-03-03T23:32:07.991Z,10.53
2024-03-03T23:34:35.053Z,10.54
2024-03-03T23:37:13.280Z,10.48
2024-03-03T23:39:46.326Z,10.43
2024-03-03T23:42:13.837Z,10.38
2024-03-03T23:44:40.917Z,10.38
2024-03-03T23:47:07.891Z,10.37
2024-03-03T23:49:35.258Z,10.38
2024-03-03T23:52:02.313Z,10.36
2024-03-03T23:54:29.233Z,10.33
2024-03-03T23:56:56.612Z,10.32
2024-03-03T23:59:23.533Z,10.31
